Spearfish, SD (57799)

3:42 AM MST on November 21, 2014 (GMT -0700)
TMWC | Change Station
CLOSE
Current Station
Personal Weather Station
Location: Spearfish, SD
Elevation: 3687 ft
Nearby Weather Stations

Elev 3687 ft 44.49 °N, 103.87 °W | Updated 4 seconds ago

Partly Cloudy
Partly Cloudy
32.5 °F
Feels Like 32 °F
N
2.3
Wind Variable Wind from SSW
Gusts 2.3 mph

Today
High -- | Low -- °F
--% Chance of Precip.
Yesterday
High -- | Low -- °F
Precip. -- in
6:59 AM 4:22 PM
Waning Crescent, 1% visible
Pressure 29.83 in
Visibility 10.0 miles
Clouds Mostly Cloudy 11000 ft
Windchill 32 °F
Dew Point 21 °F
Humidity 61%
Rainfall 0.00 in
Snow Depth Not available.
UV 0 out of 12
Pollen .10 out of 12
Air Quality Not available.
Flu Activity Not available.
METAR KSPF 211035Z AUTO 25005KT 10SM BKN110 03/M07 A2983 RMK AO2

More Conditions Fewer Conditions

Pressure 29.83 in
Visibility 10.0 miles
Clouds Mostly Cloudy 11000 ft
Windchill 32 °F
Dew Point 21 °F
Humidity 61%
Rainfall 0.00 in
Snow Depth Not available.
UV 0 out of 12
Pollen .10 out of 12
Air Quality Not available.
Flu Activity Not available.
METAR KSPF 211035Z AUTO 25005KT 10SM BKN110 03/M07 A2983 RMK AO2

More Conditions Fewer Conditions

10-Day Weather Forecast

Almanac

Astronomy

Nov. 21, 2014 Rise Set
Actual Time
Civil Twilight
Nautical Twilight
Astronomical Twilight
Moon
Length of Visible Light
Length of Day
Tomorrow will be .
, % of the Moon is Illuminated

Today's Extremes

State Highs State Lows

Community

WunderPhotos

Upload Photos

1,772,640 photos uploaded!

WunderBlogs® & News

Nearby

Air Quality

  Air Quality AQ Index Pollutant
Not available.

Snow Depth

Station Depth Elevation

Earthquake Activity

City Distance Mag. Time & Date
Minimum magnitude displayed is 2.5.

Coastal Water Temperatures

Place Temperature

Nearby Weather Stations